sensor_id;sensor_type;location;lat;lon;timestamp;temperature;humidity
4209;DHT22;36320;48.860;2.380;2022-10-28T00:01:10;21.10;80.10
4209;DHT22;36320;48.860;2.380;2022-10-28T00:03:56;21.10;80.00
4209;DHT22;36320;48.860;2.380;2022-10-28T00:06:30;21.10;80.00
4209;DHT22;36320;48.860;2.380;2022-10-28T00:09:02;21.10;80.00
4209;DHT22;36320;48.860;2.380;2022-10-28T00:11:31;21.20;80.10
4209;DHT22;36320;48.860;2.380;2022-10-28T00:13:58;21.20;80.00
4209;DHT22;36320;48.860;2.380;2022-10-28T00:16:28;21.10;79.90
4209;DHT22;36320;48.860;2.380;2022-10-28T00:18:56;21.10;80.00
4209;DHT22;36320;48.860;2.380;2022-10-28T00:21:25;21.10;80.00
4209;DHT22;36320;48.860;2.380;2022-10-28T00:23:51;21.10;80.10
4209;DHT22;36320;48.860;2.380;2022-10-28T00:26:20;21.00;80.00
4209;DHT22;36320;48.860;2.380;2022-10-28T00:29:02;22.00;81.10
4209;DHT22;36320;48.860;2.380;2022-10-28T00:31:36;21.00;80.20
4209;DHT22;36320;48.860;2.380;2022-10-28T00:34:04;21.00;80.20
4209;DHT22;36320;48.860;2.380;2022-10-28T00:36:33;21.00;80.30
4209;DHT22;36320;48.860;2.380;2022-10-28T00:39:06;21.00;80.40
4209;DHT22;36320;48.860;2.380;2022-10-28T00:41:35;21.00;80.40
4209;DHT22;36320;48.860;2.380;2022-10-28T00:52:48;20.90;80.60
4209;DHT22;36320;48.860;2.380;2022-10-28T00:55:17;20.90;81.30
4209;DHT22;36320;48.860;2.380;2022-10-28T00:57:44;20.90;80.60
4209;DHT22;36320;48.860;2.380;2022-10-28T01:00:11;20.90;80.70
4209;DHT22;36320;48.860;2.380;2022-10-28T01:02:47;20.80;80.60
4209;DHT22;36320;48.860;2.380;2022-10-28T01:05:21;20.80;80.80
4209;DHT22;36320;48.860;2.380;2022-10-28T01:07:55;20.80;80.90
4209;DHT22;36320;48.860;2.380;2022-10-28T01:16:13;20.80;81.00
4209;DHT22;36320;48.860;2.380;2022-10-28T01:18:58;20.80;80.90
4209;DHT22;36320;48.860;2.380;2022-10-28T01:22:05;20.30;80.50
4209;DHT22;36320;48.860;2.380;2022-10-28T01:25:11;20.80;81.00
4209;DHT22;36320;48.860;2.380;2022-10-28T01:27:52;20.70;80.90
4209;DHT22;36320;48.860;2.380;2022-10-28T01:30:26;20.80;81.00
4209;DHT22;36320;48.860;2.380;2022-10-28T01:33:20;20.70;80.90
4209;DHT22;36320;48.860;2.380;2022-10-28T01:35:56;20.80;81.00
4209;DHT22;36320;48.860;2.380;2022-10-28T01:41:13;20.70;80.90
4209;DHT22;36320;48.860;2.380;2022-10-28T01:46:14;20.70;81.00
4209;DHT22;36320;48.860;2.380;2022-10-28T01:48:46;20.70;81.00
4209;DHT22;36320;48.860;2.380;2022-10-28T01:51:35;20.70;81.00
4209;DHT22;36320;48.860;2.380;2022-10-28T01:54:04;20.60;80.90
4209;DHT22;36320;48.860;2.380;2022-10-28T01:56:36;20.60;81.10
4209;DHT22;36320;48.860;2.380;2022-10-28T01:59:08;20.60;81.10
4209;DHT22;36320;48.860;2.380;2022-10-28T02:01:36;20.60;81.00
4209;DHT22;36320;48.860;2.380;2022-10-28T02:04:02;20.60;80.90
4209;DHT22;36320;48.860;2.380;2022-10-28T02:06:29;20.60;81.00
4209;DHT22;36320;48.860;2.380;2022-10-28T02:22:28;20.60;81.10
4209;DHT22;36320;48.860;2.380;2022-10-28T02:25:02;20.60;81.20
4209;DHT22;36320;48.860;2.380;2022-10-28T02:32:59;20.50;81.20
4209;DHT22;36320;48.860;2.380;2022-10-28T02:38:12;20.50;81.20
4209;DHT22;36320;48.860;2.380;2022-10-28T02:40:39;20.40;81.20
4209;DHT22;36320;48.860;2.380;2022-10-28T02:43:09;20.40;81.20
4209;DHT22;36320;48.860;2.380;2022-10-28T02:45:40;20.40;81.20
4209;DHT22;36320;48.860;2.380;2022-10-28T02:48:40;20.40;81.20
4209;DHT22;36320;48.860;2.380;2022-10-28T02:51:17;20.40;82.00
4209;DHT22;36320;48.860;2.380;2022-10-28T02:54:11;20.40;81.20
4209;DHT22;36320;48.860;2.380;2022-10-28T02:56:47;20.40;81.20
4209;DHT22;36320;48.860;2.380;2022-10-28T02:59:15;20.40;81.20
4209;DHT22;36320;48.860;2.380;2022-10-28T03:01:41;20.40;81.20
4209;DHT22;36320;48.860;2.380;2022-10-28T03:04:07;20.40;82.00
4209;DHT22;36320;48.860;2.380;2022-10-28T03:06:33;20.40;81.30
4209;DHT22;36320;48.860;2.380;2022-10-28T03:08:59;20.40;81.30
4209;DHT22;36320;48.860;2.380;2022-10-28T03:11:26;20.40;81.20
4209;DHT22;36320;48.860;2.380;2022-10-28T03:13:52;20.40;81.30
4209;DHT22;36320;48.860;2.380;2022-10-28T03:16:17;20.30;81.30
4209;DHT22;36320;48.860;2.380;2022-10-28T03:18:43;20.30;81.20
4209;DHT22;36320;48.860;2.380;2022-10-28T03:21:11;20.30;81.30
4209;DHT22;36320;48.860;2.380;2022-10-28T03:23:38;20.30;81.30
4209;DHT22;36320;48.860;2.380;2022-10-28T03:26:04;20.30;81.40
4209;DHT22;36320;48.860;2.380;2022-10-28T03:28:30;20.30;81.40
4209;DHT22;36320;48.860;2.380;2022-10-28T03:30:55;20.30;81.40
4209;DHT22;36320;48.860;2.380;2022-10-28T03:33:21;20.30;82.00
4209;DHT22;36320;48.860;2.380;2022-10-28T03:35:46;20.30;81.30
4209;DHT22;36320;48.860;2.380;2022-10-28T03:38:12;20.30;81.40
4209;DHT22;36320;48.860;2.380;2022-10-28T03:40:38;20.30;81.30
4209;DHT22;36320;48.860;2.380;2022-10-28T03:43:03;20.30;81.20
4209;DHT22;36320;48.860;2.380;2022-10-28T03:45:29;20.30;81.30
4209;DHT22;36320;48.860;2.380;2022-10-28T03:47:55;20.30;81.30
4209;DHT22;36320;48.860;2.380;2022-10-28T03:50:20;20.20;81.20
4209;DHT22;36320;48.860;2.380;2022-10-28T03:52:46;20.20;81.30
4209;DHT22;36320;48.860;2.380;2022-10-28T03:55:12;20.20;81.20
4209;DHT22;36320;48.860;2.380;2022-10-28T03:57:38;19.80;80.90
4209;DHT22;36320;48.860;2.380;2022-10-28T04:00:04;20.20;81.30
4209;DHT22;36320;48.860;2.380;2022-10-28T04:02:30;20.20;81.40
4209;DHT22;36320;48.860;2.380;2022-10-28T04:04:56;20.20;81.30
4209;DHT22;36320;48.860;2.380;2022-10-28T04:07:22;20.20;81.30
4209;DHT22;36320;48.860;2.380;2022-10-28T04:09:48;20.10;81.20
4209;DHT22;36320;48.860;2.380;2022-10-28T04:12:16;20.20;81.30
4209;DHT22;36320;48.860;2.380;2022-10-28T04:14:42;20.10;81.20
4209;DHT22;36320;48.860;2.380;2022-10-28T04:17:07;20.20;81.30
4209;DHT22;36320;48.860;2.380;2022-10-28T04:19:33;20.10;81.20
4209;DHT22;36320;48.860;2.380;2022-10-28T04:21:59;20.10;81.20
4209;DHT22;36320;48.860;2.380;2022-10-28T04:24:25;20.20;81.20
4209;DHT22;36320;48.860;2.380;2022-10-28T04:26:50;20.20;81.20
4209;DHT22;36320;48.860;2.380;2022-10-28T04:29:16;20.20;81.10
4209;DHT22;36320;48.860;2.380;2022-10-28T04:31:42;20.20;81.10
4209;DHT22;36320;48.860;2.380;2022-10-28T04:34:08;20.20;81.00
4209;DHT22;36320;48.860;2.380;2022-10-28T04:36:33;20.20;81.00
4209;DHT22;36320;48.860;2.380;2022-10-28T04:38:59;20.20;80.90
4209;DHT22;36320;48.860;2.380;2022-10-28T04:41:25;20.20;80.90
4209;DHT22;36320;48.860;2.380;2022-10-28T04:43:50;20.20;80.90
4209;DHT22;36320;48.860;2.380;2022-10-28T04:46:16;20.20;80.80
4209;DHT22;36320;48.860;2.380;2022-10-28T04:48:42;20.20;80.70
4209;DHT22;36320;48.860;2.380;2022-10-28T04:51:07;21.20;81.80
4209;DHT22;36320;48.860;2.380;2022-10-28T04:53:33;20.20;80.70
4209;DHT22;36320;48.860;2.380;2022-10-28T04:55:59;20.20;80.60
4209;DHT22;36320;48.860;2.380;2022-10-28T04:58:25;20.20;80.60
4209;DHT22;36320;48.860;2.380;2022-10-28T05:00:51;20.20;80.60
4209;DHT22;36320;48.860;2.380;2022-10-28T05:03:17;20.20;80.40
4209;DHT22;36320;48.860;2.380;2022-10-28T05:05:42;20.20;80.50
4209;DHT22;36320;48.860;2.380;2022-10-28T05:08:08;20.20;80.70
4209;DHT22;36320;48.860;2.380;2022-10-28T05:10:34;20.20;80.70
4209;DHT22;36320;48.860;2.380;2022-10-28T05:12:59;20.20;80.90
4209;DHT22;36320;48.860;2.380;2022-10-28T05:15:25;20.10;80.90
4209;DHT22;36320;48.860;2.380;2022-10-28T05:18:14;20.10;80.70
4209;DHT22;36320;48.860;2.380;2022-10-28T05:20:55;20.10;80.70
4209;DHT22;36320;48.860;2.380;2022-10-28T05:23:33;20.10;80.70
4209;DHT22;36320;48.860;2.380;2022-10-28T05:25:59;20.10;80.80
4209;DHT22;36320;48.860;2.380;2022-10-28T05:28:25;20.10;80.70
4209;DHT22;36320;48.860;2.380;2022-10-28T05:30:51;20.10;80.60
4209;DHT22;36320;48.860;2.380;2022-10-28T05:33:17;20.10;80.60
4209;DHT22;36320;48.860;2.380;2022-10-28T05:35:42;20.10;80.70
4209;DHT22;36320;48.860;2.380;2022-10-28T05:38:08;20.10;80.70
4209;DHT22;36320;48.860;2.380;2022-10-28T05:40:34;20.10;81.40
4209;DHT22;36320;48.860;2.380;2022-10-28T05:43:00;20.10;80.70
4209;DHT22;36320;48.860;2.380;2022-10-28T05:45:27;20.10;80.80
4209;DHT22;36320;48.860;2.380;2022-10-28T05:47:53;20.10;80.70
4209;DHT22;36320;48.860;2.380;2022-10-28T05:50:20;20.10;80.70
4209;DHT22;36320;48.860;2.380;2022-10-28T05:52:48;20.10;80.60
4209;DHT22;36320;48.860;2.380;2022-10-28T05:55:14;20.10;80.60
4209;DHT22;36320;48.860;2.380;2022-10-28T05:57:40;20.00;80.60
4209;DHT22;36320;48.860;2.380;2022-10-28T06:00:06;20.00;80.50
4209;DHT22;36320;48.860;2.380;2022-10-28T06:02:32;20.00;80.70
4209;DHT22;36320;48.860;2.380;2022-10-28T06:04:57;20.00;80.60
4209;DHT22;36320;48.860;2.380;2022-10-28T06:07:28;20.00;80.60
4209;DHT22;36320;48.860;2.380;2022-10-28T06:09:53;20.00;80.50
4209;DHT22;36320;48.860;2.380;2022-10-28T06:12:19;19.90;80.40
4209;DHT22;36320;48.860;2.380;2022-10-28T06:14:45;19.90;80.40
4209;DHT22;36320;48.860;2.380;2022-10-28T06:17:11;19.90;80.40
4209;DHT22;36320;48.860;2.380;2022-10-28T06:19:36;19.90;80.30
4209;DHT22;36320;48.860;2.380;2022-10-28T06:22:05;19.90;80.30
4209;DHT22;36320;48.860;2.380;2022-10-28T06:24:35;19.90;80.40
4209;DHT22;36320;48.860;2.380;2022-10-28T06:27:01;19.90;80.30
4209;DHT22;36320;48.860;2.380;2022-10-28T06:29:26;19.80;80.30
4209;DHT22;36320;48.860;2.380;2022-10-28T06:31:52;19.80;80.20
4209;DHT22;36320;48.860;2.380;2022-10-28T06:34:18;19.80;80.30
4209;DHT22;36320;48.860;2.380;2022-10-28T06:36:45;19.90;80.40
4209;DHT22;36320;48.860;2.380;2022-10-28T06:39:11;19.90;80.30
4209;DHT22;36320;48.860;2.380;2022-10-28T06:41:37;19.90;80.40
4209;DHT22;36320;48.860;2.380;2022-10-28T06:44:02;19.90;80.30
4209;DHT22;36320;48.860;2.380;2022-10-28T06:46:28;19.90;80.30
4209;DHT22;36320;48.860;2.380;2022-10-28T06:48:54;19.90;81.00
4209;DHT22;36320;48.860;2.380;2022-10-28T06:51:20;19.90;80.30
4209;DHT22;36320;48.860;2.380;2022-10-28T06:53:50;19.90;80.30
4209;DHT22;36320;48.860;2.380;2022-10-28T06:56:16;19.90;80.30
4209;DHT22;36320;48.860;2.380;2022-10-28T06:58:42;19.90;80.10
4209;DHT22;36320;48.860;2.380;2022-10-28T07:01:08;19.90;80.10
4209;DHT22;36320;48.860;2.380;2022-10-28T07:03:34;19.90;80.10
4209;DHT22;36320;48.860;2.380;2022-10-28T07:06:00;20.80;80.90
4209;DHT22;36320;48.860;2.380;2022-10-28T07:08:28;19.90;80.00
4209;DHT22;36320;48.860;2.380;2022-10-28T07:10:56;19.90;80.00
4209;DHT22;36320;48.860;2.380;2022-10-28T07:13:23;19.90;80.00
4209;DHT22;36320;48.860;2.380;2022-10-28T07:15:52;20.00;80.10
4209;DHT22;36320;48.860;2.380;2022-10-28T07:18:19;20.00;80.00
4209;DHT22;36320;48.860;2.380;2022-10-28T07:20:45;20.00;79.90
4209;DHT22;36320;48.860;2.380;2022-10-28T07:23:14;20.00;79.90
4209;DHT22;36320;48.860;2.380;2022-10-28T07:25:50;20.10;79.80
4209;DHT22;36320;48.860;2.380;2022-10-28T07:28:16;20.10;79.70
4209;DHT22;36320;48.860;2.380;2022-10-28T07:30:42;20.20;79.60
4209;DHT22;36320;48.860;2.380;2022-10-28T07:33:07;20.20;79.40
4209;DHT22;36320;48.860;2.380;2022-10-28T07:35:33;20.30;79.10
4209;DHT22;36320;48.860;2.380;2022-10-28T07:38:00;20.40;79.20
4209;DHT22;36320;48.860;2.380;2022-10-28T07:40:26;20.40;79.00
4209;DHT22;36320;48.860;2.380;2022-10-28T07:42:52;20.40;78.80
4209;DHT22;36320;48.860;2.380;2022-10-28T07:45:18;20.50;78.70
4209;DHT22;36320;48.860;2.380;2022-10-28T07:47:44;20.50;78.60
4209;DHT22;36320;48.860;2.380;2022-10-28T07:50:11;20.60;78.40
4209;DHT22;36320;48.860;2.380;2022-10-28T07:52:37;20.60;78.30
4209;DHT22;36320;48.860;2.380;2022-10-28T07:55:05;20.70;78.20
4209;DHT22;36320;48.860;2.380;2022-10-28T07:57:31;20.80;78.00
4209;DHT22;36320;48.860;2.380;2022-10-28T07:59:56;20.90;77.80
4209;DHT22;36320;48.860;2.380;2022-10-28T08:02:23;21.00;77.50
4209;DHT22;36320;48.860;2.380;2022-10-28T08:04:49;21.00;77.30
4209;DHT22;36320;48.860;2.380;2022-10-28T08:07:16;21.10;77.10
4209;DHT22;36320;48.860;2.380;2022-10-28T08:09:41;21.20;76.90
4209;DHT22;36320;48.860;2.380;2022-10-28T08:12:07;21.20;76.80
4209;DHT22;36320;48.860;2.380;2022-10-28T08:14:34;21.30;76.50
4209;DHT22;36320;48.860;2.380;2022-10-28T08:17:00;21.10;76.00
4209;DHT22;36320;48.860;2.380;2022-10-28T08:19:26;21.20;76.00
4209;DHT22;36320;48.860;2.380;2022-10-28T08:21:51;21.20;76.00
4209;DHT22;36320;48.860;2.380;2022-10-28T08:24:17;21.20;75.90
4209;DHT22;36320;48.860;2.380;2022-10-28T08:26:43;21.20;75.80
4209;DHT22;36320;48.860;2.380;2022-10-28T08:29:09;21.20;75.60
4209;DHT22;36320;48.860;2.380;2022-10-28T08:31:37;21.30;75.30
4209;DHT22;36320;48.860;2.380;2022-10-28T08:34:02;21.30;75.30
4209;DHT22;36320;48.860;2.380;2022-10-28T08:36:28;21.40;75.10
4209;DHT22;36320;48.860;2.380;2022-10-28T08:38:55;21.40;74.90
4209;DHT22;36320;48.860;2.380;2022-10-28T08:49:41;21.50;74.50
4209;DHT22;36320;48.860;2.380;2022-10-28T08:52:24;21.50;74.30
4209;DHT22;36320;48.860;2.380;2022-10-28T08:54:56;21.60;74.20
4209;DHT22;36320;48.860;2.380;2022-10-28T08:57:35;21.70;73.90
4209;DHT22;36320;48.860;2.380;2022-10-28T09:00:06;21.70;73.50
4209;DHT22;36320;48.860;2.380;2022-10-28T09:02:47;21.70;73.30
4209;DHT22;36320;48.860;2.380;2022-10-28T09:07:40;21.80;72.80
4209;DHT22;36320;48.860;2.380;2022-10-28T09:10:06;21.90;72.70
4209;DHT22;36320;48.860;2.380;2022-10-28T09:15:16;21.90;72.30
4209;DHT22;36320;48.860;2.380;2022-10-28T09:17:56;22.00;72.10
4209;DHT22;36320;48.860;2.380;2022-10-28T09:23:27;22.00;72.00
4209;DHT22;36320;48.860;2.380;2022-10-28T09:28:44;22.00;71.80
4209;DHT22;36320;48.860;2.380;2022-10-28T09:34:45;22.10;71.60
4209;DHT22;36320;48.860;2.380;2022-10-28T09:36:54;22.00;71.70
4209;DHT22;36320;48.860;2.380;2022-10-28T09:39:28;22.00;71.70
4209;DHT22;36320;48.860;2.380;2022-10-28T09:41:59;22.10;71.60
4209;DHT22;36320;48.860;2.380;2022-10-28T09:44:38;22.10;72.40
4209;DHT22;36320;48.860;2.380;2022-10-28T09:47:13;22.10;71.50
4209;DHT22;36320;48.860;2.380;2022-10-28T09:49:40;22.30;71.60
4209;DHT22;36320;48.860;2.380;2022-10-28T09:54:43;22.50;71.20
4209;DHT22;36320;48.860;2.380;2022-10-28T09:57:10;22.50;71.90
4209;DHT22;36320;48.860;2.380;2022-10-28T09:59:37;22.60;71.20
4209;DHT22;36320;48.860;2.380;2022-10-28T10:02:03;22.60;71.70
4209;DHT22;36320;48.860;2.380;2022-10-28T10:04:30;22.70;71.10
4209;DHT22;36320;48.860;2.380;2022-10-28T10:06:56;22.70;70.90
4209;DHT22;36320;48.860;2.380;2022-10-28T10:09:26;22.70;70.80
4209;DHT22;36320;48.860;2.380;2022-10-28T10:12:02;22.70;70.90
4209;DHT22;36320;48.860;2.380;2022-10-28T10:14:35;22.70;71.00
4209;DHT22;36320;48.860;2.380;2022-10-28T10:17:09;22.60;70.90
4209;DHT22;36320;48.860;2.380;2022-10-28T10:22:47;22.30;70.90
4209;DHT22;36320;48.860;2.380;2022-10-28T10:28:43;22.50;71.30
4209;DHT22;36320;48.860;2.380;2022-10-28T10:30:44;22.50;71.70
4209;DHT22;36320;48.860;2.380;2022-10-28T10:33:35;22.50;71.60
4209;DHT22;36320;48.860;2.380;2022-10-28T10:36:13;22.50;71.80
4209;DHT22;36320;48.860;2.380;2022-10-28T10:38:47;22.50;71.80
4209;DHT22;36320;48.860;2.380;2022-10-28T10:41:42;22.60;71.80
4209;DHT22;36320;48.860;2.380;2022-10-28T10:44:23;22.30;71.40
4209;DHT22;36320;48.860;2.380;2022-10-28T10:47:30;22.70;71.80
4209;DHT22;36320;48.860;2.380;2022-10-28T10:52:58;22.90;71.70
4209;DHT22;36320;48.860;2.380;2022-10-28T10:55:32;23.00;71.50
4209;DHT22;36320;48.860;2.380;2022-10-28T10:57:58;23.10;71.40
4209;DHT22;36320;48.860;2.380;2022-10-28T11:00:29;23.00;71.40
4209;DHT22;36320;48.860;2.380;2022-10-28T11:02:58;23.00;71.70
4209;DHT22;36320;48.860;2.380;2022-10-28T11:05:28;23.00;71.70
4209;DHT22;36320;48.860;2.380;2022-10-28T11:07:56;23.00;71.70
4209;DHT22;36320;48.860;2.380;2022-10-28T11:10:28;23.10;71.60
4209;DHT22;36320;48.860;2.380;2022-10-28T11:13:00;23.30;71.50
4209;DHT22;36320;48.860;2.380;2022-10-28T11:15:30;23.30;71.50
4209;DHT22;36320;48.860;2.380;2022-10-28T11:18:15;23.30;71.30
4209;DHT22;36320;48.860;2.380;2022-10-28T11:21:13;23.40;71.30
4209;DHT22;36320;48.860;2.380;2022-10-28T11:26:18;23.40;71.60
4209;DHT22;36320;48.860;2.380;2022-10-28T11:37:06;23.40;71.60
4209;DHT22;36320;48.860;2.380;2022-10-28T11:39:42;23.50;71.70
4209;DHT22;36320;48.860;2.380;2022-10-28T11:45:07;23.70;71.50
4209;DHT22;36320;48.860;2.380;2022-10-28T11:53:21;23.90;71.50
4209;DHT22;36320;48.860;2.380;2022-10-28T11:55:55;24.00;71.40
4209;DHT22;36320;48.860;2.380;2022-10-28T11:59:25;23.90;71.40
4209;DHT22;36320;48.860;2.380;2022-10-28T12:01:49;24.10;71.30
4209;DHT22;36320;48.860;2.380;2022-10-28T12:09:45;24.10;70.60
4209;DHT22;36320;48.860;2.380;2022-10-28T12:23:07;24.00;70.30
4209;DHT22;36320;48.860;2.380;2022-10-28T12:25:38;24.40;70.70
4209;DHT22;36320;48.860;2.380;2022-10-28T12:30:52;24.50;70.90
4209;DHT22;36320;48.860;2.380;2022-10-28T12:34:04;24.40;71.00
4209;DHT22;36320;48.860;2.380;2022-10-28T12:39:09;24.50;70.80
4209;DHT22;36320;48.860;2.380;2022-10-28T12:44:24;24.70;70.70
4209;DHT22;36320;48.860;2.380;2022-10-28T12:57:37;25.10;69.80
4209;DHT22;36320;48.860;2.380;2022-10-28T13:00:25;25.20;69.70
4209;DHT22;36320;48.860;2.380;2022-10-28T13:03:00;25.10;69.70
4209;DHT22;36320;48.860;2.380;2022-10-28T13:05:36;25.10;69.80
4209;DHT22;36320;48.860;2.380;2022-10-28T13:08:31;25.10;69.70
4209;DHT22;36320;48.860;2.380;2022-10-28T13:22:53;25.80;68.10
4209;DHT22;36320;48.860;2.380;2022-10-28T13:27:57;25.50;69.10
4209;DHT22;36320;48.860;2.380;2022-10-28T13:30:25;25.50;69.00
4209;DHT22;36320;48.860;2.380;2022-10-28T13:33:05;25.60;69.00
4209;DHT22;36320;48.860;2.380;2022-10-28T13:35:31;25.60;68.90
4209;DHT22;36320;48.860;2.380;2022-10-28T13:37:59;25.40;69.00
4209;DHT22;36320;48.860;2.380;2022-10-28T13:43:00;25.30;69.60
4209;DHT22;36320;48.860;2.380;2022-10-28T13:45:53;25.30;69.70
4209;DHT22;36320;48.860;2.380;2022-10-28T13:56:42;25.10;70.60
4209;DHT22;36320;48.860;2.380;2022-10-28T14:06:59;25.10;70.90
4209;DHT22;36320;48.860;2.380;2022-10-28T14:09:31;25.10;70.80
4209;DHT22;36320;48.860;2.380;2022-10-28T14:12:27;25.10;70.90
4209;DHT22;36320;48.860;2.380;2022-10-28T14:17:38;25.10;71.10
4209;DHT22;36320;48.860;2.380;2022-10-28T14:20:38;25.20;70.90
4209;DHT22;36320;48.860;2.380;2022-10-28T14:45:19;24.90;71.80
4209;DHT22;36320;48.860;2.380;2022-10-28T14:50:43;25.00;72.50
4209;DHT22;36320;48.860;2.380;2022-10-28T14:53:29;25.00;71.90
4209;DHT22;36320;48.860;2.380;2022-10-28T14:56:02;25.00;71.90
4209;DHT22;36320;48.860;2.380;2022-10-28T14:58:35;25.00;72.10
4209;DHT22;36320;48.860;2.380;2022-10-28T15:03:50;24.90;72.00
4209;DHT22;36320;48.860;2.380;2022-10-28T15:06:42;24.90;72.10
4209;DHT22;36320;48.860;2.380;2022-10-28T15:09:28;24.90;72.10
4209;DHT22;36320;48.860;2.380;2022-10-28T15:12:14;24.90;72.30
4209;DHT22;36320;48.860;2.380;2022-10-28T15:14:46;24.90;72.40
4209;DHT22;36320;48.860;2.380;2022-10-28T15:17:28;24.90;72.30
4209;DHT22;36320;48.860;2.380;2022-10-28T15:20:24;24.90;72.60
4209;DHT22;36320;48.860;2.380;2022-10-28T15:22:51;24.90;72.80
4209;DHT22;36320;48.860;2.380;2022-10-28T15:25:20;24.80;72.70
4209;DHT22;36320;48.860;2.380;2022-10-28T15:27:51;24.80;73.00
4209;DHT22;36320;48.860;2.380;2022-10-28T15:30:19;24.70;73.20
4209;DHT22;36320;48.860;2.380;2022-10-28T15:38:40;24.70;74.20
4209;DHT22;36320;48.860;2.380;2022-10-28T15:41:33;24.60;74.60
4209;DHT22;36320;48.860;2.380;2022-10-28T15:44:03;24.60;74.90
4209;DHT22;36320;48.860;2.380;2022-10-28T15:46:30;24.50;75.00
4209;DHT22;36320;48.860;2.380;2022-10-28T15:48:58;24.40;75.50
4209;DHT22;36320;48.860;2.380;2022-10-28T15:51:38;24.40;75.80
4209;DHT22;36320;48.860;2.380;2022-10-28T15:54:15;24.30;76.00
4209;DHT22;36320;48.860;2.380;2022-10-28T15:56:53;24.30;76.50
4209;DHT22;36320;48.860;2.380;2022-10-28T15:59:21;24.30;76.40
4209;DHT22;36320;48.860;2.380;2022-10-28T16:01:47;24.30;76.40
4209;DHT22;36320;48.860;2.380;2022-10-28T16:07:06;24.20;76.50
4209;DHT22;36320;48.860;2.380;2022-10-28T16:09:45;24.10;76.80
4209;DHT22;36320;48.860;2.380;2022-10-28T16:12:31;24.10;77.20
4209;DHT22;36320;48.860;2.380;2022-10-28T16:15:03;24.00;77.40
4209;DHT22;36320;48.860;2.380;2022-10-28T16:17:40;23.90;77.50
4209;DHT22;36320;48.860;2.380;2022-10-28T16:20:11;23.90;77.80
4209;DHT22;36320;48.860;2.380;2022-10-28T16:22:38;23.90;77.60
4209;DHT22;36320;48.860;2.380;2022-10-28T16:25:12;23.80;78.60
4209;DHT22;36320;48.860;2.380;2022-10-28T16:27:38;23.80;78.00
4209;DHT22;36320;48.860;2.380;2022-10-28T16:30:05;23.70;78.00
4209;DHT22;36320;48.860;2.380;2022-10-28T16:32:40;23.70;78.20
4209;DHT22;36320;48.860;2.380;2022-10-28T16:35:15;23.60;78.20
4209;DHT22;36320;48.860;2.380;2022-10-28T16:37:43;23.70;78.40
4209;DHT22;36320;48.860;2.380;2022-10-28T16:40:09;23.60;79.10
4209;DHT22;36320;48.860;2.380;2022-10-28T16:42:36;23.60;78.50
4209;DHT22;36320;48.860;2.380;2022-10-28T16:45:03;23.60;78.50
4209;DHT22;36320;48.860;2.380;2022-10-28T16:47:29;23.60;78.50
4209;DHT22;36320;48.860;2.380;2022-10-28T16:49:55;23.50;78.60
4209;DHT22;36320;48.860;2.380;2022-10-28T16:52:28;23.50;78.80
4209;DHT22;36320;48.860;2.380;2022-10-28T16:54:54;23.50;78.90
4209;DHT22;36320;48.860;2.380;2022-10-28T16:57:20;23.40;79.00
4209;DHT22;36320;48.860;2.380;2022-10-28T16:59:54;23.40;79.20
4209;DHT22;36320;48.860;2.380;2022-10-28T17:02:31;23.40;79.30
4209;DHT22;36320;48.860;2.380;2022-10-28T17:05:00;23.40;79.50
4209;DHT22;36320;48.860;2.380;2022-10-28T17:07:28;23.40;79.60
4209;DHT22;36320;48.860;2.380;2022-10-28T17:09:55;23.30;79.70
4209;DHT22;36320;48.860;2.380;2022-10-28T17:12:24;23.30;79.90
4209;DHT22;36320;48.860;2.380;2022-10-28T17:14:51;23.30;80.00
4209;DHT22;36320;48.860;2.380;2022-10-28T17:17:17;23.20;80.10
4209;DHT22;36320;48.860;2.380;2022-10-28T17:19:43;23.30;80.20
4209;DHT22;36320;48.860;2.380;2022-10-28T17:22:16;23.20;80.00
4209;DHT22;36320;48.860;2.380;2022-10-28T17:24:51;23.20;80.10
4209;DHT22;36320;48.860;2.380;2022-10-28T17:27:19;23.10;80.40
4209;DHT22;36320;48.860;2.380;2022-10-28T17:29:45;23.10;80.60
4209;DHT22;36320;48.860;2.380;2022-10-28T17:32:12;23.10;80.70
4209;DHT22;36320;48.860;2.380;2022-10-28T17:34:38;23.10;81.30
4209;DHT22;36320;48.860;2.380;2022-10-28T17:37:04;23.10;80.50
4209;DHT22;36320;48.860;2.380;2022-10-28T17:39:29;23.10;80.60
4209;DHT22;36320;48.860;2.380;2022-10-28T17:41:55;23.10;80.70
4209;DHT22;36320;48.860;2.380;2022-10-28T17:44:21;23.00;80.70
4209;DHT22;36320;48.860;2.380;2022-10-28T17:46:47;23.00;80.80
4209;DHT22;36320;48.860;2.380;2022-10-28T17:49:17;23.00;80.90
4209;DHT22;36320;48.860;2.380;2022-10-28T17:51:44;23.00;81.10
4209;DHT22;36320;48.860;2.380;2022-10-28T17:54:11;23.00;81.20
4209;DHT22;36320;48.860;2.380;2022-10-28T17:56:37;22.60;80.90
4209;DHT22;36320;48.860;2.380;2022-10-28T17:59:06;22.90;81.20
4209;DHT22;36320;48.860;2.380;2022-10-28T18:01:36;22.90;81.30
4209;DHT22;36320;48.860;2.380;2022-10-28T18:04:03;22.90;81.50
4209;DHT22;36320;48.860;2.380;2022-10-28T18:06:29;22.90;81.60
4209;DHT22;36320;48.860;2.380;2022-10-28T18:08:57;22.90;81.70
4209;DHT22;36320;48.860;2.380;2022-10-28T18:11:29;22.80;81.80
4209;DHT22;36320;48.860;2.380;2022-10-28T18:13:57;22.80;81.90
4209;DHT22;36320;48.860;2.380;2022-10-28T18:16:24;22.80;82.10
4209;DHT22;36320;48.860;2.380;2022-10-28T18:18:52;22.70;82.10
4209;DHT22;36320;48.860;2.380;2022-10-28T18:21:18;22.70;82.10
4209;DHT22;36320;48.860;2.380;2022-10-28T18:23:49;22.70;82.30
4209;DHT22;36320;48.860;2.380;2022-10-28T18:26:15;22.70;82.40
4209;DHT22;36320;48.860;2.380;2022-10-28T18:28:42;22.70;82.60
4209;DHT22;36320;48.860;2.380;2022-10-28T18:31:18;22.60;82.60
4209;DHT22;36320;48.860;2.380;2022-10-28T18:33:44;22.60;82.60
4209;DHT22;36320;48.860;2.380;2022-10-28T18:36:16;22.60;82.80
4209;DHT22;36320;48.860;2.380;2022-10-28T18:38:42;22.60;82.90
4209;DHT22;36320;48.860;2.380;2022-10-28T18:41:13;22.60;82.90
4209;DHT22;36320;48.860;2.380;2022-10-28T18:43:39;22.60;83.10
4209;DHT22;36320;48.860;2.380;2022-10-28T18:46:06;22.60;83.10
4209;DHT22;36320;48.860;2.380;2022-10-28T18:48:31;22.50;83.10
4209;DHT22;36320;48.860;2.380;2022-10-28T18:51:02;22.50;83.30
4209;DHT22;36320;48.860;2.380;2022-10-28T18:53:34;22.50;83.50
4209;DHT22;36320;48.860;2.380;2022-10-28T18:56:00;22.40;83.50
4209;DHT22;36320;48.860;2.380;2022-10-28T18:58:26;22.40;83.60
4209;DHT22;36320;48.860;2.380;2022-10-28T19:00:52;22.40;83.70
4209;DHT22;36320;48.860;2.380;2022-10-28T19:03:20;22.40;83.90
4209;DHT22;36320;48.860;2.380;2022-10-28T19:05:49;22.40;84.00
4209;DHT22;36320;48.860;2.380;2022-10-28T19:08:16;22.30;84.00
4209;DHT22;36320;48.860;2.380;2022-10-28T19:10:41;22.30;84.20
4209;DHT22;36320;48.860;2.380;2022-10-28T19:13:07;23.10;85.10
4209;DHT22;36320;48.860;2.380;2022-10-28T19:15:33;22.30;84.40
4209;DHT22;36320;48.860;2.380;2022-10-28T19:18:04;22.30;84.50
4209;DHT22;36320;48.860;2.380;2022-10-28T19:20:30;22.30;84.50
4209;DHT22;36320;48.860;2.380;2022-10-28T19:22:55;22.30;84.60
4209;DHT22;36320;48.860;2.380;2022-10-28T19:25:21;22.30;84.60
4209;DHT22;36320;48.860;2.380;2022-10-28T19:27:47;22.20;84.50